Bennet, Nebraska
Current Conditions -  °F | °C
As of 6:54 AM on Monday 22 Dec 2014 (Local Time) from KLNK Reporting Station
Light Rain Light Rain  
Wind Chill: 38°   Ceiling: 700
Heat Index: 43°   Visibility: 3mi
Dew Point: 42°   Wind: 8mph
Humidity: 97%   Direction: 180°S
Pressure: 29.53"   Gusts: NA
Location:  40.68°N, 96.51°W
Report Text: KLNK 221254Z 18007KT 3SM -RA BR OVC007 06/06 A2953 RMK AO2 SLP002 P0002 T00610056
Loading
Personal Weather Stations






























Interactive Weather Map New forecast layout! Learn more

10-Day Weather Forecast

Advertisements
Track Severe Weather on mobile